Time;durP1;ratioP1;P1;durP2;ratioP2;P2;SDS_P1;SDS_P2;PMS_P1;PMS_P2;Temp;Humidity;BMP_temperature;BMP_pressure;BME280_temperature;BME280_humidity;BME280_pressure;Samples;Min_cycle;Max_cycle;Signal;HPM_P1;HPM_P2
2023/08/19 00:01:03;;;;;;;8.27;6.17;;;18.20;99.90;;;;;;5039954;28;20265;-57
2023/08/19 00:03:29;;;;;;;13.90;5.80;;;18.20;99.90;;;;;;5043420;28;20776;-57
2023/08/19 00:05:55;;;;;;;12.47;6.53;;;18.20;99.90;;;;;;5044217;28;20444;-57
2023/08/19 00:08:21;;;;;;;8.13;5.57;;;18.10;99.90;;;;;;5046079;28;20806;-57
2023/08/19 00:10:47;;;;;;;10.03;6.50;;;18.10;99.90;;;;;;5034554;28;20184;-56
2023/08/19 00:13:12;;;;;;;12.70;5.23;;;18.00;99.90;;;;;;5036800;28;21165;-56
2023/08/19 00:15:38;;;;;;;9.70;6.20;;;18.10;99.90;;;;;;5040561;28;20179;-56
2023/08/19 00:18:04;;;;;;;14.50;6.53;;;18.00;99.90;;;;;;5045270;28;20203;-56
2023/08/19 00:20:32;;;;;;;8.60;6.17;;;18.00;99.90;;;;;;5040697;28;20175;-57
2023/08/19 00:22:59;;;;;;;11.07;6.77;;;18.00;99.90;;;;;;5035176;28;20191;-56
2023/08/19 00:25:25;;;;;;;16.80;9.20;;;18.00;99.90;;;;;;5043317;28;20453;-57
2023/08/19 00:27:52;;;;;;;21.57;7.90;;;18.00;99.90;;;;;;5044763;28;20465;-57
2023/08/19 00:30:18;;;;;;;9.63;5.70;;;17.90;99.90;;;;;;5041432;28;20446;-56
2023/08/19 00:32:44;;;;;;;6.70;5.60;;;17.90;99.90;;;;;;5047309;28;20441;-57
2023/08/19 00:35:10;;;;;;;18.13;6.30;;;17.90;99.90;;;;;;5038885;28;20575;-56
2023/08/19 00:37:36;;;;;;;12.30;6.00;;;17.90;99.90;;;;;;5041338;28;20842;-58
2023/08/19 00:40:05;;;;;;;9.87;6.10;;;17.80;99.90;;;;;;5043053;28;20437;-56
2023/08/19 00:42:31;;;;;;;14.17;6.00;;;17.80;99.90;;;;;;5039092;28;20198;-57
2023/08/19 00:44:57;;;;;;;9.00;6.40;;;17.80;99.90;;;;;;5044593;28;20425;-56
2023/08/19 00:47:24;;;;;;;9.97;6.60;;;17.80;99.90;;;;;;5044851;28;20461;-56
2023/08/19 00:49:50;;;;;;;9.87;5.40;;;17.80;99.90;;;;;;5034262;28;20203;-57
2023/08/19 00:52:17;;;;;;;12.07;6.77;;;17.80;99.90;;;;;;5037303;28;20426;-57
2023/08/19 00:54:43;;;;;;;19.43;7.00;;;17.70;99.90;;;;;;5048232;28;20505;-56
2023/08/19 00:57:08;;;;;;;13.07;7.10;;;17.70;99.90;;;;;;5043337;28;20484;-55
2023/08/19 00:59:34;;;;;;;10.83;6.37;;;17.70;99.90;;;;;;5047091;28;20175;-56
2023/08/19 01:01:59;;;;;;;8.60;6.00;;;17.70;99.90;;;;;;5044511;28;20187;-56
2023/08/19 01:04:25;;;;;;;11.10;5.43;;;17.60;99.90;;;;;;5035218;28;20245;-56
2023/08/19 01:07:05;;;;;;;7.00;5.73;;;17.60;99.90;;;;;;5034540;28;20197;-56
2023/08/19 01:09:52;;;;;;;7.80;6.20;;;17.60;99.90;;;;;;5044436;28;20175;-56
2023/08/19 01:12:44;;;;;;;8.33;6.30;;;17.60;99.90;;;;;;5043875;28;20425;-55
2023/08/19 01:15:12;;;;;;;11.37;5.77;;;17.60;99.90;;;;;;5032400;28;20423;-56
2023/08/19 01:17:38;;;;;;;7.20;5.30;;;17.60;99.90;;;;;;5037821;28;20555;-56
2023/08/19 01:20:08;;;;;;;8.30;5.60;;;17.60;99.90;;;;;;5036461;28;20411;-55
2023/08/19 01:22:44;;;;;;;7.03;5.30;;;17.60;99.90;;;;;;5041745;28;20433;-56
2023/08/19 01:25:11;;;;;;;8.93;6.10;;;17.50;99.90;;;;;;5045401;28;20423;-56
2023/08/19 01:27:37;;;;;;;12.87;6.00;;;17.50;99.90;;;;;;5040470;28;20457;-57
2023/08/19 01:30:04;;;;;;;9.73;5.80;;;17.50;99.90;;;;;;5041330;28;20432;-56
2023/08/19 01:32:30;;;;;;;7.23;6.03;;;17.50;99.90;;;;;;5040631;28;20856;-56
2023/08/19 01:34:56;;;;;;;9.03;6.10;;;17.40;99.90;;;;;;5037648;28;20422;-56
2023/08/19 01:37:43;;;;;;;8.27;5.90;;;17.40;99.90;;;;;;5046708;28;20437;-56
2023/08/19 01:40:13;;;;;;;15.43;6.50;;;17.50;99.90;;;;;;5009458;28;20199;-56
2023/08/19 01:42:40;;;;;;;14.03;6.20;;;17.40;99.90;;;;;;5036443;28;20953;-57
2023/08/19 01:45:07;;;;;;;9.70;5.83;;;17.40;99.90;;;;;;5040168;28;20445;-56
2023/08/19 01:47:38;;;;;;;10.30;5.90;;;17.40;99.90;;;;;;5038031;28;20484;-56
2023/08/19 01:50:07;;;;;;;11.57;6.80;;;17.40;99.90;;;;;;5037312;28;21105;-57
2023/08/19 01:52:34;;;;;;;7.33;5.47;;;17.40;99.90;;;;;;5038735;28;20427;-56
2023/08/19 01:54:59;;;;;;;17.50;6.50;;;17.30;99.90;;;;;;5034433;28;20445;-57
2023/08/19 01:57:28;;;;;;;9.93;6.37;;;17.30;99.90;;;;;;5033725;28;20542;-56
2023/08/19 01:59:54;;;;;;;14.03;6.00;;;17.30;99.90;;;;;;5042208;28;20190;-56
2023/08/19 02:02:21;;;;;;;6.87;5.70;;;17.20;99.90;;;;;;5044154;28;20433;-56
2023/08/19 02:04:47;;;;;;;10.60;5.50;;;17.20;99.90;;;;;;5044059;28;20460;-56
2023/08/19 02:07:12;;;;;;;10.33;5.90;;;17.20;99.90;;;;;;5038744;28;20465;-57
2023/08/19 02:09:38;;;;;;;9.50;5.80;;;17.20;99.90;;;;;;5033588;28;20179;-57
2023/08/19 02:12:04;;;;;;;11.20;6.70;;;17.20;99.90;;;;;;5036738;28;20222;-55
2023/08/19 02:14:30;;;;;;;13.43;6.10;;;17.10;99.90;;;;;;5037539;28;20460;-56
2023/08/19 02:16:56;;;;;;;8.77;6.50;;;17.10;99.90;;;;;;5043196;28;20422;-57
2023/08/19 02:19:21;;;;;;;6.90;6.13;;;17.10;99.90;;;;;;5042631;28;20175;-55
2023/08/19 02:21:47;;;;;;;9.70;6.17;;;17.00;99.90;;;;;;5034727;28;20233;-56
2023/08/19 02:24:12;;;;;;;7.63;5.43;;;17.00;99.90;;;;;;5041112;28;20229;-56
2023/08/19 02:26:38;;;;;;;12.37;5.87;;;17.00;99.90;;;;;;5041941;28;20282;-56
2023/08/19 02:29:04;;;;;;;8.63;5.90;;;17.00;99.90;;;;;;5038701;28;20199;-56
2023/08/19 02:31:29;;;;;;;9.00;5.67;;;17.00;99.90;;;;;;5046404;28;20233;-56
2023/08/19 02:33:55;;;;;;;7.40;5.77;;;17.00;99.90;;;;;;5038745;28;20666;-57
2023/08/19 02:36:21;;;;;;;9.67;5.70;;;16.90;99.90;;;;;;5038519;28;20172;-57
2023/08/19 02:38:47;;;;;;;9.87;5.60;;;16.90;99.90;;;;;;5039376;28;20207;-56
2023/08/19 02:41:13;;;;;;;11.10;5.97;;;16.90;99.90;;;;;;5044110;28;20480;-57
2023/08/19 02:43:38;;;;;;;13.03;6.30;;;16.90;99.90;;;;;;5049182;28;20300;-56
2023/08/19 02:46:04;;;;;;;7.20;5.30;;;16.90;99.90;;;;;;5043936;28;20175;-56
2023/08/19 02:48:30;;;;;;;11.97;5.90;;;16.90;99.90;;;;;;5044693;28;20199;-56
2023/08/19 02:50:56;;;;;;;8.70;5.70;;;16.90;99.90;;;;;;5042683;28;20445;-57
2023/08/19 02:53:22;;;;;;;7.97;5.90;;;16.80;99.90;;;;;;5048306;28;20196;-57
2023/08/19 02:55:51;;;;;;;8.17;5.93;;;16.80;99.90;;;;;;5046617;28;20195;-56
2023/08/19 02:58:17;;;;;;;10.97;6.57;;;16.80;99.90;;;;;;5047234;28;20526;-55
2023/08/19 03:00:46;;;;;;;11.63;5.70;;;16.80;99.90;;;;;;5046562;28;20852;-56
2023/08/19 03:03:12;;;;;;;7.23;5.53;;;16.80;99.90;;;;;;5038770;28;20199;-55
2023/08/19 03:05:39;;;;;;;7.20;5.20;;;16.70;99.90;;;;;;5044662;28;20871;-56
2023/08/19 03:08:05;;;;;;;12.77;6.03;;;16.70;99.90;;;;;;5048696;28;20449;-56
2023/08/19 03:10:35;;;;;;;8.73;5.20;;;16.70;99.90;;;;;;5048388;28;20421;-57
2023/08/19 03:13:01;;;;;;;11.60;5.77;;;16.70;99.90;;;;;;5045309;28;20476;-56
2023/08/19 03:15:27;;;;;;;7.70;5.23;;;16.70;99.90;;;;;;5045332;28;20877;-56
2023/08/19 03:17:52;;;;;;;16.27;5.87;;;16.70;99.90;;;;;;5038051;28;20474;-56
2023/08/19 03:20:18;;;;;;;11.90;5.53;;;16.70;99.90;;;;;;5045499;28;20176;-56
2023/08/19 03:22:44;;;;;;;10.23;6.00;;;16.60;99.90;;;;;;5048658;28;20179;-56
2023/08/19 03:25:10;;;;;;;7.83;5.93;;;16.60;99.90;;;;;;5038863;28;20206;-56
2023/08/19 03:27:36;;;;;;;12.13;5.67;;;16.60;99.90;;;;;;5041875;28;20218;-57
2023/08/19 03:30:04;;;;;;;7.53;5.53;;;16.60;99.90;;;;;;5043308;28;20792;-56
2023/08/19 03:32:30;;;;;;;8.50;6.33;;;16.60;99.90;;;;;;5047419;28;20232;-57
2023/08/19 03:34:56;;;;;;;8.77;5.17;;;16.60;99.90;;;;;;5045935;28;20472;-57
2023/08/19 03:37:21;;;;;;;9.10;6.00;;;16.50;99.90;;;;;;5047618;28;20459;-56
2023/08/19 03:39:47;;;;;;;14.53;5.80;;;16.50;99.90;;;;;;5034168;28;20317;-56
2023/08/19 03:42:12;;;;;;;10.83;6.00;;;16.50;99.90;;;;;;5042913;28;20183;-56
2023/08/19 03:44:38;;;;;;;8.80;6.00;;;16.50;99.90;;;;;;5044339;28;20179;-57
2023/08/19 03:47:04;;;;;;;7.13;5.17;;;16.40;99.90;;;;;;5041156;28;20306;-57
2023/08/19 03:49:29;;;;;;;7.67;5.87;;;16.50;99.90;;;;;;5049319;28;20186;-57
2023/08/19 03:51:55;;;;;;;9.07;5.43;;;16.50;99.90;;;;;;5045251;28;20313;-57
2023/08/19 03:54:20;;;;;;;12.53;6.07;;;16.50;99.90;;;;;;5040497;28;20192;-56
2023/08/19 03:56:46;;;;;;;9.07;5.90;;;16.40;99.90;;;;;;5044038;28;20644;-55
2023/08/19 03:59:12;;;;;;;10.50;5.57;;;16.40;99.90;;;;;;5045425;28;20163;-56
2023/08/19 04:01:39;;;;;;;10.10;6.13;;;16.40;99.90;;;;;;5047519;28;21114;-56
2023/08/19 04:04:06;;;;;;;7.50;5.70;;;16.40;99.90;;;;;;5040248;28;20689;-55
2023/08/19 04:06:32;;;;;;;11.53;5.97;;;16.30;99.90;;;;;;5042046;28;20965;-56
2023/08/19 04:08:58;;;;;;;8.10;5.73;;;16.30;99.90;;;;;;5040390;28;20446;-55
2023/08/19 04:11:24;;;;;;;11.47;6.30;;;16.30;99.90;;;;;;5039112;28;20211;-56
2023/08/19 04:13:49;;;;;;;13.17;6.10;;;16.30;99.90;;;;;;5044676;28;20288;-56
2023/08/19 04:16:15;;;;;;;9.70;5.20;;;16.30;99.90;;;;;;5048099;28;20539;-56
2023/08/19 04:18:40;;;;;;;10.30;6.20;;;16.30;99.90;;;;;;5034968;28;20246;-56
2023/08/19 04:21:07;;;;;;;15.47;5.63;;;16.20;99.90;;;;;;5039655;28;20744;-55
2023/08/19 04:23:33;;;;;;;12.80;5.90;;;16.20;99.90;;;;;;5042631;28;20180;-56
2023/08/19 04:25:59;;;;;;;12.67;5.70;;;16.20;99.90;;;;;;5042764;28;20449;-57
2023/08/19 04:28:25;;;;;;;10.87;5.63;;;16.20;99.90;;;;;;5048064;28;20981;-56
2023/08/19 04:31:12;;;;;;;10.70;5.57;;;16.20;99.90;;;;;;5040533;28;20433;-55
2023/08/19 04:33:38;;;;;;;8.23;5.27;;;16.20;99.90;;;;;;5036285;28;20665;-55
2023/08/19 04:36:04;;;;;;;7.57;5.80;;;16.20;99.90;;;;;;5043029;28;20514;-57
2023/08/19 04:38:30;;;;;;;10.77;5.47;;;16.20;99.90;;;;;;5043461;28;20543;-55
2023/08/19 04:40:56;;;;;;;10.80;6.67;;;16.10;99.90;;;;;;5045903;28;20543;-56
2023/08/19 04:43:22;;;;;;;9.00;5.80;;;16.10;99.90;;;;;;5040091;28;20437;-56
2023/08/19 04:45:48;;;;;;;7.90;5.50;;;16.10;99.90;;;;;;5039466;28;20430;-55
2023/08/19 04:48:14;;;;;;;9.20;5.17;;;16.10;99.90;;;;;;5036469;28;20241;-56
2023/08/19 04:50:39;;;;;;;8.50;5.83;;;16.10;99.90;;;;;;5045596;28;20186;-55
2023/08/19 04:53:05;;;;;;;8.53;5.40;;;16.20;99.90;;;;;;5045191;28;20201;-56
2023/08/19 04:55:31;;;;;;;8.67;5.57;;;16.20;99.90;;;;;;5046201;28;20179;-55
2023/08/19 04:57:57;;;;;;;13.33;4.90;;;16.20;99.90;;;;;;5034912;28;20846;-56
2023/08/19 05:00:22;;;;;;;7.77;5.50;;;16.20;99.90;;;;;;5044688;28;20167;-55
2023/08/19 05:02:49;;;;;;;6.07;5.20;;;16.20;99.90;;;;;;5043028;28;20182;-56
2023/08/19 05:05:14;;;;;;;8.00;6.00;;;16.20;99.90;;;;;;5040602;28;20214;-57
2023/08/19 05:07:40;;;;;;;10.00;5.97;;;16.30;99.90;;;;;;5048306;28;20882;-56
2023/08/19 05:10:08;;;;;;;10.90;6.10;;;16.30;99.90;;;;;;5039535;28;20183;-56
2023/08/19 05:12:34;;;;;;;8.43;5.27;;;16.30;99.90;;;;;;5044284;28;20254;-57
2023/08/19 05:15:00;;;;;;;13.30;5.73;;;16.40;99.90;;;;;;5042121;28;20458;-56
2023/08/19 05:17:25;;;;;;;8.67;5.20;;;16.40;99.90;;;;;;5047498;28;20524;-56
2023/08/19 05:19:51;;;;;;;13.03;5.83;;;16.40;99.90;;;;;;5044281;28;20300;-56
2023/08/19 05:22:17;;;;;;;8.90;4.70;;;16.50;99.90;;;;;;5036541;28;20183;-56
2023/08/19 05:24:42;;;;;;;9.47;5.20;;;16.50;99.90;;;;;;5036136;28;20179;-56
2023/08/19 05:27:08;;;;;;;9.60;5.60;;;16.60;99.90;;;;;;5036833;28;20210;-56
2023/08/19 05:29:33;;;;;;;11.17;5.50;;;16.60;99.90;;;;;;5038581;28;20852;-56
2023/08/19 05:31:59;;;;;;;6.67;5.00;;;16.70;99.90;;;;;;5044214;28;20179;-56
2023/08/19 05:34:25;;;;;;;7.77;5.50;;;16.80;99.90;;;;;;5032993;28;20202;-56
2023/08/19 05:36:51;;;;;;;8.43;5.40;;;16.80;99.90;;;;;;5032578;28;20175;-56
2023/08/19 05:39:17;;;;;;;9.93;5.00;;;16.90;99.90;;;;;;5039037;28;20803;-56
2023/08/19 05:41:43;;;;;;;7.70;4.97;;;16.90;99.90;;;;;;5045923;28;20421;-56
2023/08/19 05:44:08;;;;;;;6.43;4.70;;;17.00;99.90;;;;;;5047266;28;20190;-56
2023/08/19 05:46:34;;;;;;;9.37;5.53;;;17.00;99.90;;;;;;5040705;28;20450;-55
2023/08/19 05:49:00;;;;;;;17.77;5.00;;;17.00;99.90;;;;;;5037293;28;20279;-56
2023/08/19 05:51:26;;;;;;;15.47;5.10;;;17.00;99.90;;;;;;5043164;28;20347;-56
2023/08/19 05:53:58;;;;;;;9.43;5.27;;;17.10;99.90;;;;;;5044552;28;20564;-55
2023/08/19 05:56:24;;;;;;;8.10;5.13;;;17.20;99.90;;;;;;5046551;28;20414;-56
2023/08/19 05:58:50;;;;;;;10.87;6.33;;;17.20;99.90;;;;;;5034135;28;20441;-55
2023/08/19 06:01:15;;;;;;;8.20;6.03;;;17.40;99.90;;;;;;5035811;28;20667;-56
2023/08/19 06:03:41;;;;;;;7.23;5.07;;;17.40;99.90;;;;;;5040958;28;20187;-56
2023/08/19 06:06:07;;;;;;;9.67;5.63;;;17.50;99.90;;;;;;5041087;28;20565;-56
2023/08/19 06:08:33;;;;;;;7.63;5.43;;;17.50;99.90;;;;;;5038663;28;20198;-56
2023/08/19 06:11:06;;;;;;;8.23;6.20;;;17.60;99.90;;;;;;5040464;28;20230;-56
2023/08/19 06:13:35;;;;;;;7.77;5.93;;;17.70;99.90;;;;;;5048472;28;20549;-54
2023/08/19 06:16:01;;;;;;;8.70;5.60;;;17.70;99.90;;;;;;5049407;28;20432;-56
2023/08/19 06:18:28;;;;;;;9.83;5.30;;;17.70;99.90;;;;;;5041857;28;20480;-55
2023/08/19 06:20:54;;;;;;;8.00;5.83;;;17.80;99.90;;;;;;5039395;28;20426;-56
2023/08/19 06:23:20;;;;;;;8.30;6.00;;;17.80;99.90;;;;;;5044453;28;20428;-56
2023/08/19 06:25:51;;;;;;;11.63;5.13;;;17.90;99.90;;;;;;5048161;28;20425;-56
2023/08/19 06:28:18;;;;;;;11.67;6.00;;;18.00;99.90;;;;;;5048798;28;20268;-55
2023/08/19 06:30:44;;;;;;;10.73;5.57;;;18.10;99.90;;;;;;5039616;28;20980;-55
2023/08/19 06:33:10;;;;;;;7.97;5.30;;;18.20;99.90;;;;;;5042231;28;20550;-56
2023/08/19 06:35:36;;;;;;;11.17;6.10;;;18.20;99.90;;;;;;5045780;28;20434;-56
2023/08/19 06:38:26;;;;;;;9.20;5.80;;;18.30;99.90;;;;;;5049340;28;20817;-54
2023/08/19 06:41:04;;;;;;;10.30;5.90;;;18.40;99.90;;;;;;5041939;28;20429;-56
2023/08/19 06:43:31;;;;;;;14.20;7.10;;;18.50;99.90;;;;;;5042715;28;20457;-58
2023/08/19 06:45:57;;;;;;;9.20;5.87;;;18.60;99.90;;;;;;5042138;28;20428;-56
2023/08/19 06:48:24;;;;;;;15.60;6.80;;;18.70;99.90;;;;;;5049771;28;20532;-56
2023/08/19 06:50:53;;;;;;;11.87;6.10;;;18.80;99.90;;;;;;5040836;28;20430;-57
2023/08/19 06:53:20;;;;;;;10.40;6.23;;;18.80;99.90;;;;;;5044548;28;20450;-58
2023/08/19 06:55:50;;;;;;;11.60;6.83;;;18.90;99.90;;;;;;5046676;28;20472;-56
2023/08/19 06:58:28;;;;;;;10.63;6.10;;;19.00;99.90;;;;;;5036096;28;20460;-56
2023/08/19 07:00:59;;;;;;;12.20;5.87;;;19.10;99.90;;;;;;5036600;28;20417;-57
2023/08/19 07:03:29;;;;;;;8.13;5.53;;;19.20;99.90;;;;;;5048340;28;20522;-56
2023/08/19 07:05:56;;;;;;;15.83;6.70;;;19.30;99.90;;;;;;5044531;28;20424;-57
2023/08/19 07:08:23;;;;;;;13.50;6.40;;;19.40;99.90;;;;;;5044190;28;21006;-56
2023/08/19 07:10:49;;;;;;;17.43;6.07;;;19.50;99.90;;;;;;5043316;28;20923;-57
2023/08/19 07:13:14;;;;;;;16.53;6.43;;;19.50;99.90;;;;;;5036784;28;20832;-57
2023/08/19 07:15:44;;;;;;;13.60;5.90;;;19.60;99.90;;;;;;5045385;28;20428;-57
2023/08/19 07:18:15;;;;;;;21.00;6.63;;;19.80;99.90;;;;;;5041227;28;20230;-57
2023/08/19 07:20:42;;;;;;;11.33;5.60;;;19.80;99.90;;;;;;5040274;28;20832;-56
2023/08/19 07:23:08;;;;;;;13.77;7.27;;;19.90;99.90;;;;;;5041271;28;20445;-56
2023/08/19 07:25:34;;;;;;;8.87;5.70;;;20.00;99.90;;;;;;5043766;28;20934;-57
2023/08/19 07:28:03;;;;;;;9.97;6.73;;;20.10;99.90;;;;;;5040205;28;20994;-58
2023/08/19 07:30:29;;;;;;;14.00;6.83;;;20.20;99.90;;;;;;5041919;28;20442;-58
2023/08/19 07:32:55;;;;;;;7.00;5.10;;;20.30;99.90;;;;;;5041636;28;20440;-57
2023/08/19 07:35:20;;;;;;;11.73;5.60;;;20.50;99.90;;;;;;5037258;28;20578;-58
2023/08/19 07:37:46;;;;;;;14.20;6.00;;;20.60;99.90;;;;;;5042268;28;20195;-57
2023/08/19 07:40:12;;;;;;;11.27;5.67;;;20.70;99.90;;;;;;5040962;28;20175;-57
2023/08/19 07:42:37;;;;;;;11.37;5.40;;;20.80;99.90;;;;;;5039221;28;20205;-57
2023/08/19 07:45:05;;;;;;;8.20;5.27;;;20.90;99.90;;;;;;5043895;28;20186;-56
2023/08/19 07:47:30;;;;;;;17.20;5.37;;;21.00;99.90;;;;;;5043049;28;20195;-58
2023/08/19 07:49:56;;;;;;;13.37;5.20;;;21.10;99.90;;;;;;5037476;28;20436;-58
2023/08/19 07:52:22;;;;;;;11.60;5.40;;;21.30;99.90;;;;;;5040191;28;20178;-57
2023/08/19 07:54:47;;;;;;;7.87;5.00;;;21.40;99.90;;;;;;5039369;28;20248;-57
2023/08/19 07:57:13;;;;;;;12.10;5.83;;;21.50;99.90;;;;;;5043035;28;20290;-57
2023/08/19 07:59:38;;;;;;;6.13;4.70;;;21.60;98.30;;;;;;5042601;28;20179;-58
2023/08/19 08:02:04;;;;;;;10.33;4.90;;;21.70;95.50;;;;;;5030070;28;20563;-57
2023/08/19 08:04:30;;;;;;;17.63;5.70;;;21.80;94.80;;;;;;5037210;28;20175;-57
2023/08/19 08:06:55;;;;;;;14.00;5.53;;;21.90;95.30;;;;;;5037508;28;20186;-57
2023/08/19 08:09:21;;;;;;;9.40;5.17;;;22.00;94.80;;;;;;5044650;28;20195;-57
2023/08/19 08:11:48;;;;;;;9.80;5.80;;;22.10;95.70;;;;;;5048521;28;20191;-57
2023/08/19 08:14:14;;;;;;;13.13;5.20;;;22.30;95.70;;;;;;5048758;28;20195;-57
2023/08/19 08:16:40;;;;;;;12.53;5.60;;;22.40;94.40;;;;;;5037106;28;20429;-59
2023/08/19 08:19:06;;;;;;;8.27;4.83;;;22.50;93.80;;;;;;5040347;28;20211;-57
2023/08/19 08:21:31;;;;;;;6.83;5.17;;;22.70;93.80;;;;;;5042718;28;20187;-58
2023/08/19 08:23:57;;;;;;;9.63;4.63;;;22.80;93.10;;;;;;5044717;28;20183;-60
2023/08/19 08:26:23;;;;;;;10.67;5.17;;;22.90;91.80;;;;;;5041731;28;20313;-58
2023/08/19 08:28:49;;;;;;;10.67;5.40;;;23.00;90.60;;;;;;5043729;28;20264;-58
2023/08/19 08:31:16;;;;;;;10.10;5.00;;;23.10;90.10;;;;;;5038990;28;20182;-59
2023/08/19 08:33:41;;;;;;;7.37;4.90;;;23.30;87.50;;;;;;5035169;28;20510;-57
2023/08/19 08:36:08;;;;;;;8.27;4.97;;;23.30;83.50;;;;;;5035251;28;20437;-58
2023/08/19 08:38:33;;;;;;;9.97;5.80;;;23.50;80.70;;;;;;5039978;28;20192;-57
2023/08/19 08:41:02;;;;;;;15.13;5.07;;;23.60;79.70;;;;;;5040925;28;20422;-58
2023/08/19 08:43:33;;;;;;;9.70;4.50;;;23.70;79.10;;;;;;5047640;28;20175;-58
2023/08/19 08:45:59;;;;;;;10.03;5.33;;;23.80;78.10;;;;;;5048040;28;20512;-57
2023/08/19 08:48:28;;;;;;;11.50;4.90;;;23.90;77.20;;;;;;5039666;28;20821;-58
2023/08/19 08:50:55;;;;;;;9.07;5.97;;;24.00;76.40;;;;;;5036295;28;20433;-58
2023/08/19 08:53:21;;;;;;;9.80;5.37;;;24.20;74.40;;;;;;5038931;28;20823;-57
2023/08/19 08:55:47;;;;;;;14.23;10.90;;;24.30;73.70;;;;;;5046656;28;20421;-57
2023/08/19 08:58:14;;;;;;;10.57;5.83;;;24.50;73.30;;;;;;5044368;28;20332;-58
2023/08/19 09:00:40;;;;;;;11.57;5.97;;;24.60;72.60;;;;;;5044340;28;20438;-57
2023/08/19 09:03:09;;;;;;;11.20;5.13;;;24.80;71.20;;;;;;5038295;28;20426;-57
2023/08/19 09:05:38;;;;;;;6.50;4.90;;;24.90;69.80;;;;;;5042792;28;20425;-57
2023/08/19 09:08:08;;;;;;;11.90;5.10;;;25.10;68.70;;;;;;5044485;28;21037;-57
2023/08/19 09:10:36;;;;;;;8.30;5.50;;;25.20;67.30;;;;;;5041236;28;20430;-57
2023/08/19 09:13:03;;;;;;;13.20;5.13;;;25.30;66.60;;;;;;5044725;28;20910;-58
2023/08/19 09:15:31;;;;;;;11.93;5.20;;;25.40;64.80;;;;;;5042374;28;20424;-58
2023/08/19 09:17:58;;;;;;;10.80;6.00;;;25.50;64.70;;;;;;5042228;28;20452;-57
2023/08/19 09:20:25;;;;;;;14.07;5.60;;;25.70;64.70;;;;;;5046144;28;21892;-58
2023/08/19 09:22:51;;;;;;;20.77;5.70;;;25.90;64.80;;;;;;5040775;28;20420;-58
2023/08/19 09:25:17;;;;;;;10.97;4.93;;;26.20;65.10;;;;;;5037266;28;20407;-56
2023/08/19 09:27:44;;;;;;;8.23;4.97;;;26.40;64.10;;;;;;5043721;28;20553;-57
2023/08/19 09:30:15;;;;;;;10.90;4.80;;;26.50;63.00;;;;;;5043544;28;20715;-57
2023/08/19 09:32:44;;;;;;;9.37;4.93;;;26.70;61.70;;;;;;5045084;28;20445;-59
2023/08/19 09:35:14;;;;;;;9.00;4.70;;;26.80;60.70;;;;;;5045694;28;20468;-58
2023/08/19 09:37:41;;;;;;;17.07;5.40;;;26.90;61.00;;;;;;5039383;28;20260;-58
2023/08/19 09:40:11;;;;;;;10.83;5.10;;;27.00;61.00;;;;;;5041167;28;20187;-58
2023/08/19 09:42:40;;;;;;;8.10;4.40;;;27.10;58.60;;;;;;5044020;28;20175;-57
2023/08/19 09:45:07;;;;;;;13.30;6.07;;;27.20;57.70;;;;;;5039163;28;20174;-56
2023/08/19 09:47:46;;;;;;;5.90;4.60;;;27.30;56.70;;;;;;5040364;28;20668;-58
2023/08/19 09:50:11;;;;;;;10.83;5.03;;;27.40;58.10;;;;;;5042841;28;20182;-58
2023/08/19 09:52:38;;;;;;;10.23;5.67;;;27.50;58.20;;;;;;5041281;28;20183;-57
2023/08/19 09:55:04;;;;;;;7.23;4.70;;;27.70;57.90;;;;;;5037103;28;20708;-58
2023/08/19 09:57:32;;;;;;;8.43;5.03;;;27.90;56.60;;;;;;5045778;28;20194;-58
2023/08/19 09:59:58;;;;;;;14.93;5.03;;;28.00;55.30;;;;;;5038466;28;20765;-57
2023/08/19 10:02:24;;;;;;;9.23;5.03;;;28.10;55.80;;;;;;5045371;28;20198;-59
2023/08/19 10:04:49;;;;;;;8.63;4.63;;;28.20;55.70;;;;;;5041933;28;20185;-58
2023/08/19 10:07:16;;;;;;;13.82;4.95;;;28.50;54.90;;;;;;5034296;28;20210;-57
2023/08/19 10:09:42;;;;;;;11.45;5.55;;;28.60;54.80;;;;;;5040118;28;20192;-58
2023/08/19 10:12:11;;;;;;;6.50;4.85;;;28.70;54.20;;;;;;5033657;28;20179;-59
2023/08/19 10:14:38;;;;;;;7.25;4.63;;;28.90;54.30;;;;;;5045379;28;20213;-57
2023/08/19 10:17:05;;;;;;;8.32;4.32;;;29.00;54.70;;;;;;5036378;28;20186;-56
2023/08/19 10:19:43;;;;;;;10.32;5.22;;;29.10;53.70;;;;;;5039867;28;20175;-56
2023/08/19 10:22:12;;;;;;;9.65;5.07;;;29.20;52.30;;;;;;5035862;28;20579;-57
2023/08/19 10:24:40;;;;;;;10.10;5.07;;;29.30;51.20;;;;;;5033223;28;20182;-56
2023/08/19 10:27:06;;;;;;;10.50;5.30;;;29.40;51.70;;;;;;5034111;28;20195;-57
2023/08/19 10:29:31;;;;;;;10.52;4.95;;;29.40;51.90;;;;;;5043338;28;20245;-56
2023/08/19 10:32:17;;;;;;;13.35;4.90;;;29.40;51.50;;;;;;5035568;28;20191;-56
2023/08/19 10:34:46;;;;;;;7.95;5.10;;;29.50;49.80;;;;;;5036453;28;20202;-58
2023/08/19 10:37:12;;;;;;;9.30;4.82;;;29.50;49.10;;;;;;5041652;28;20196;-56
2023/08/19 10:39:37;;;;;;;6.15;4.20;;;29.50;49.70;;;;;;5046348;28;20175;-57
2023/08/19 10:42:03;;;;;;;8.15;4.63;;;29.60;51.00;;;;;;5041535;28;20171;-57
2023/08/19 10:44:33;;;;;;;7.78;4.63;;;29.70;51.80;;;;;;5038393;28;20205;-57
2023/08/19 10:47:15;;;;;;;8.98;4.60;;;29.90;51.70;;;;;;5038643;28;20186;-57
2023/08/19 10:49:41;;;;;;;10.82;5.05;;;30.00;50.20;;;;;;5041734;28;20178;-57
2023/08/19 10:52:07;;;;;;;11.50;4.95;;;30.10;50.10;;;;;;5040102;28;20268;-57
2023/08/19 10:54:40;;;;;;;16.15;5.57;;;30.20;49.20;;;;;;5035480;28;20305;-56
2023/08/19 10:57:07;;;;;;;8.13;4.65;;;30.30;49.40;;;;;;5043099;28;20286;-57
2023/08/19 10:59:34;;;;;;;7.07;5.00;;;30.50;50.00;;;;;;5030537;28;20553;-56
2023/08/19 11:02:00;;;;;;;8.13;4.80;;;30.70;49.90;;;;;;5047939;28;20181;-58
2023/08/19 11:04:25;;;;;;;8.73;5.40;;;30.90;48.80;;;;;;5040604;28;20679;-57
2023/08/19 11:06:52;;;;;;;15.45;5.22;;;31.00;47.70;;;;;;5033151;28;20301;-57
2023/08/19 11:09:18;;;;;;;9.45;4.78;;;31.00;47.80;;;;;;5037107;28;20183;-58
2023/08/19 11:11:44;;;;;;;10.52;5.07;;;31.10;49.20;;;;;;5046287;28;20189;-57
2023/08/19 11:14:17;;;;;;;8.98;4.43;;;31.30;46.80;;;;;;5048035;28;20201;-59
2023/08/19 11:16:54;;;;;;;9.18;4.53;;;31.30;46.40;;;;;;5040187;28;20209;-57
2023/08/19 11:19:20;;;;;;;9.80;4.95;;;31.40;46.50;;;;;;5032912;28;20175;-57
2023/08/19 11:21:46;;;;;;;7.65;5.07;;;31.50;46.40;;;;;;5035932;28;20192;-57
2023/08/19 11:24:12;;;;;;;9.07;5.30;;;31.60;46.00;;;;;;5042159;28;20182;-58
2023/08/19 11:26:42;;;;;;;12.60;4.35;;;31.70;46.20;;;;;;5040279;28;20187;-58
2023/08/19 11:29:09;;;;;;;10.55;4.95;;;31.70;46.40;;;;;;5049118;28;20201;-58
2023/08/19 11:31:36;;;;;;;10.32;5.38;;;31.80;46.20;;;;;;5045915;28;20186;-57
2023/08/19 11:34:10;;;;;;;13.85;5.15;;;31.90;45.00;;;;;;5045726;28;20263;-57
2023/08/19 11:36:36;;;;;;;10.85;5.10;;;31.90;45.00;;;;;;5043905;28;20175;-58
2023/08/19 11:39:06;;;;;;;6.78;4.13;;;31.90;45.30;;;;;;5044446;28;20200;-57
2023/08/19 11:41:33;;;;;;;8.90;4.78;;;32.00;44.60;;;;;;5033034;28;20205;-57
2023/08/19 11:44:01;;;;;;;8.40;4.82;;;32.10;44.40;;;;;;5044384;28;20189;-59
2023/08/19 11:46:33;;;;;;;13.32;5.00;;;32.20;45.50;;;;;;5044435;28;20227;-58
2023/08/19 11:49:03;;;;;;;11.23;4.88;;;32.20;45.20;;;;;;5044923;28;20199;-58
2023/08/19 11:51:29;;;;;;;9.65;4.82;;;32.20;44.70;;;;;;5045656;28;20250;-57
2023/08/19 11:54:04;;;;;;;11.75;4.95;;;32.10;44.30;;;;;;5037081;28;20200;-58
2023/08/19 11:56:50;;;;;;;11.30;5.20;;;32.10;44.80;;;;;;5044440;28;20252;-59
2023/08/19 11:59:16;;;;;;;17.85;4.35;;;32.10;45.10;;;;;;5041251;28;20197;-59
2023/08/19 12:01:44;;;;;;;8.00;4.95;;;32.10;44.30;;;;;;5047216;28;20184;-59
2023/08/19 12:04:12;;;;;;;11.02;4.85;;;32.10;44.70;;;;;;5041784;28;20182;-58
2023/08/19 12:06:38;;;;;;;11.30;4.75;;;32.10;44.00;;;;;;5040442;28;20202;-59
2023/08/19 12:09:05;;;;;;;6.00;4.75;;;32.20;44.30;;;;;;5045334;28;20202;-58
2023/08/19 12:11:33;;;;;;;9.98;5.22;;;32.10;44.80;;;;;;5044229;28;20660;-59
2023/08/19 12:13:58;;;;;;;14.77;5.50;;;32.30;44.40;;;;;;5048622;28;20216;-58
2023/08/19 12:16:24;;;;;;;10.23;5.03;;;32.50;44.00;;;;;;5035678;28;21245;-58
2023/08/19 12:18:50;;;;;;;9.23;4.85;;;32.70;43.60;;;;;;5043688;28;20255;-58
2023/08/19 12:21:15;;;;;;;14.63;6.07;;;32.80;43.20;;;;;;5042792;28;20554;-58
2023/08/19 12:23:41;;;;;;;6.70;4.82;;;33.00;42.40;;;;;;5043742;28;20232;-58
2023/08/19 12:26:06;;;;;;;7.20;5.22;;;33.10;42.20;;;;;;5044109;28;20652;-58
2023/08/19 12:28:32;;;;;;;7.30;4.95;;;33.20;42.60;;;;;;5037602;28;20222;-56
2023/08/19 12:30:58;;;;;;;9.90;4.97;;;33.30;43.00;;;;;;5041033;28;20242;-59
2023/08/19 12:33:23;;;;;;;8.70;4.93;;;33.40;42.90;;;;;;5041684;28;20739;-57
2023/08/19 12:35:50;;;;;;;7.00;5.18;;;33.50;43.30;;;;;;5047423;28;20175;-57
2023/08/19 12:38:18;;;;;;;6.65;5.50;;;33.60;41.90;;;;;;5046689;28;20677;-57
2023/08/19 12:40:45;;;;;;;13.88;5.10;;;33.70;41.60;;;;;;5039182;28;20185;-56
2023/08/19 12:43:12;;;;;;;10.60;5.60;;;33.90;42.30;;;;;;5044335;28;20676;-59